Airfield :
LOGIN :

Register | Disclaimer

   EN    FR    IT 

 










Legend :    VFR   Marginal VFR   IFR   Intensive IFR   Very Intensive IFR
Visi :
Ceiling :
>= 8 km
>= 3000ft
5 to 8 km
1000 to 3000 ft
1500m to 5 km
500 to 1000 ft
800 to 1500m
200 to 500 ft
< 800m
< 200 ft
Symbols :   Thunderstorms  Fog  Heavy snow  Heavy precipitations  Wind > 20 kt
SIGMETs :     Misc.  Thunderstorms  Icing  Turbulence  Mountain Waves  Volcanic Ashes







- Airport Elevation : 408 ft
- IATA code : SOB


LHSM - Sarmellek Balaton

CURRENT METAR :
  • 221745Z 32006KT 9999 -SHRA SCT033CB SCT060 BKN083 19/18 Q1011

EXPIRED METARs :
  • 221715Z 34006KT 9999 -SHRA FEW025 SCT033CB BKN083 19/18 Q1011
  • 221645Z 34014KT 9999 TSRA SCT020 OVC040CB 19/18 Q1010
  • 221615Z 32010KT 4000 TS BR BKN012CB FEW016TCU 21/17 Q1010
  • 221545Z 31003KT 9999 TS SCT020CB FEW025TCU SCT200 25/19 Q1010 TEMPO 5000 TSRA
  • 221515Z 25004KT 9999 SCT025CB FEW030TCU SCT200 25/19 Q1010 NOSIG

TAF TAF LHSM
Valid from the 22 at 12:00 until the 22 at 21:00 UTC


221115Z 2212/2221 VRB03KT 9999 BKN030
TEMPO 2212/2221 VRB15G26KT 5000 SHRA TSRA SCT025CB BKN030
PROB30
TEMPO 2212/2218 2000 +TSRA TSGR BKN015CB
No reported NOTAMs for that airfield.
1 SIGMET reported for the Budapest FIR (LHCC) :
 
Frequent thunderstorms
LHCC SIGMET 06 VALID 221730/221900 LHBP
LHCC BUDAPEST FIR FRQ TS FCST W OF LINE N4649 E01618 - N4744 E01923 - N4652 E01928 - N4545 E01812 TOP FL380 MOV ESE NC=



MET'MAP, your aeronautical weather chart ! - Copyright ORBIFLY December 2007 - Disclaimer

ORBIFLY MET'MAP TEAM :

Programming & Development : Alexandra Zaïnal
Concept & Development : Baudouin d'Aumeries
Co-Development & Prog : Marc-Olivier Méhu
Technical & hardware support : Manuel Goepfert

Contact : metmap@orbifly.com




SOURCES & CREDITS :

   NOAA